sensor_id;sensor_type;location;lat;lon;timestamp;P1;durP1;ratioP1;P2;durP2;ratioP2
19800;SDS011;10060;48.274;12.214;2024-03-23T00:52:39;4.97;;;4.47;;
19800;SDS011;10060;48.274;12.214;2024-03-23T00:55:42;6.03;;;4.30;;
19800;SDS011;10060;48.274;12.214;2024-03-23T00:58:44;4.90;;;4.40;;
19800;SDS011;10060;48.274;12.214;2024-03-23T01:01:45;6.80;;;4.87;;
19800;SDS011;10060;48.274;12.214;2024-03-23T01:04:48;7.80;;;4.77;;
19800;SDS011;10060;48.274;12.214;2024-03-23T01:07:50;6.47;;;4.97;;
19800;SDS011;10060;48.274;12.214;2024-03-23T01:10:56;6.33;;;4.53;;
19800;SDS011;10060;48.274;12.214;2024-03-23T01:13:57;6.33;;;4.20;;
19800;SDS011;10060;48.274;12.214;2024-03-23T01:16:59;6.13;;;4.27;;
19800;SDS011;10060;48.274;12.214;2024-03-23T01:20:02;5.10;;;4.17;;
19800;SDS011;10060;48.274;12.214;2024-03-23T01:23:05;10.60;;;4.20;;
19800;SDS011;10060;48.274;12.214;2024-03-23T01:26:07;5.30;;;4.23;;
19800;SDS011;10060;48.274;12.214;2024-03-23T01:29:09;4.43;;;3.60;;
19800;SDS011;10060;48.274;12.214;2024-03-23T01:32:11;10.13;;;4.13;;
19800;SDS011;10060;48.274;12.214;2024-03-23T01:35:13;6.90;;;4.20;;
19800;SDS011;10060;48.274;12.214;2024-03-23T01:38:17;4.47;;;4.03;;
19800;SDS011;10060;48.274;12.214;2024-03-23T01:41:18;5.00;;;4.00;;
19800;SDS011;10060;48.274;12.214;2024-03-23T01:44:21;4.20;;;3.80;;
19800;SDS011;10060;48.274;12.214;2024-03-23T01:47:23;5.63;;;3.80;;
19800;SDS011;10060;48.274;12.214;2024-03-23T01:50:24;4.37;;;3.63;;
19800;SDS011;10060;48.274;12.214;2024-03-23T01:53:28;4.97;;;3.60;;
19800;SDS011;10060;48.274;12.214;2024-03-23T01:56:31;4.50;;;4.03;;
19800;SDS011;10060;48.274;12.214;2024-03-23T01:59:33;7.13;;;4.27;;
19800;SDS011;10060;48.274;12.214;2024-03-23T02:02:35;4.17;;;3.73;;
19800;SDS011;10060;48.274;12.214;2024-03-23T02:05:38;4.50;;;3.90;;
19800;SDS011;10060;48.274;12.214;2024-03-23T02:08:40;5.13;;;4.13;;
19800;SDS011;10060;48.274;12.214;2024-03-23T02:11:43;4.23;;;3.83;;
19800;SDS011;10060;48.274;12.214;2024-03-23T02:14:44;5.83;;;4.20;;
19800;SDS011;10060;48.274;12.214;2024-03-23T02:17:46;5.03;;;4.07;;
19800;SDS011;10060;48.274;12.214;2024-03-23T02:20:47;4.83;;;4.33;;
19800;SDS011;10060;48.274;12.214;2024-03-23T02:23:51;5.23;;;4.30;;
19800;SDS011;10060;48.274;12.214;2024-03-23T02:26:53;7.67;;;4.80;;
19800;SDS011;10060;48.274;12.214;2024-03-23T02:29:55;5.43;;;4.50;;
19800;SDS011;10060;48.274;12.214;2024-03-23T02:32:57;8.57;;;5.67;;
19800;SDS011;10060;48.274;12.214;2024-03-23T02:35:58;6.63;;;5.80;;
19800;SDS011;10060;48.274;12.214;2024-03-23T02:39:01;5.97;;;5.33;;
19800;SDS011;10060;48.274;12.214;2024-03-23T02:42:03;8.13;;;6.07;;
19800;SDS011;10060;48.274;12.214;2024-03-23T02:45:06;6.30;;;5.20;;
19800;SDS011;10060;48.274;12.214;2024-03-23T02:48:08;7.23;;;5.60;;
19800;SDS011;10060;48.274;12.214;2024-03-23T02:51:11;6.90;;;5.37;;
19800;SDS011;10060;48.274;12.214;2024-03-23T02:54:13;7.20;;;5.20;;
19800;SDS011;10060;48.274;12.214;2024-03-23T02:57:15;7.70;;;5.70;;
19800;SDS011;10060;48.274;12.214;2024-03-23T03:00:17;6.73;;;5.57;;
19800;SDS011;10060;48.274;12.214;2024-03-23T03:03:19;7.13;;;5.20;;
19800;SDS011;10060;48.274;12.214;2024-03-23T03:06:23;6.90;;;5.70;;
19800;SDS011;10060;48.274;12.214;2024-03-23T03:09:27;6.07;;;5.33;;
19800;SDS011;10060;48.274;12.214;2024-03-23T03:12:28;7.37;;;5.60;;
19800;SDS011;10060;48.274;12.214;2024-03-23T03:15:31;8.03;;;6.17;;
19800;SDS011;10060;48.274;12.214;2024-03-23T03:18:32;6.90;;;6.20;;
19800;SDS011;10060;48.274;12.214;2024-03-23T03:21:35;8.13;;;6.27;;
19800;SDS011;10060;48.274;12.214;2024-03-23T03:24:38;7.17;;;6.07;;
19800;SDS011;10060;48.274;12.214;2024-03-23T03:27:40;9.37;;;6.27;;
19800;SDS011;10060;48.274;12.214;2024-03-23T03:30:42;6.43;;;5.83;;
19800;SDS011;10060;48.274;12.214;2024-03-23T03:33:44;7.33;;;6.20;;
19800;SDS011;10060;48.274;12.214;2024-03-23T03:36:45;6.90;;;5.73;;
19800;SDS011;10060;48.274;12.214;2024-03-23T03:39:49;6.40;;;5.80;;
19800;SDS011;10060;48.274;12.214;2024-03-23T03:42:51;8.37;;;5.93;;
19800;SDS011;10060;48.274;12.214;2024-03-23T03:45:52;5.93;;;4.77;;
19800;SDS011;10060;48.274;12.214;2024-03-23T03:48:55;9.10;;;5.53;;
19800;SDS011;10060;48.274;12.214;2024-03-23T03:51:56;6.87;;;5.43;;
19800;SDS011;10060;48.274;12.214;2024-03-23T03:55:02;5.70;;;5.00;;
19800;SDS011;10060;48.274;12.214;2024-03-23T03:58:04;6.40;;;5.03;;
19800;SDS011;10060;48.274;12.214;2024-03-23T04:01:06;5.80;;;4.37;;
19800;SDS011;10060;48.274;12.214;2024-03-23T04:04:07;3.87;;;3.53;;
19800;SDS011;10060;48.274;12.214;2024-03-23T04:07:09;4.20;;;3.70;;
19800;SDS011;10060;48.274;12.214;2024-03-23T04:10:12;4.03;;;3.50;;
19800;SDS011;10060;48.274;12.214;2024-03-23T04:13:15;6.87;;;4.00;;
19800;SDS011;10060;48.274;12.214;2024-03-23T04:16:24;5.30;;;4.40;;
19800;SDS011;10060;48.274;12.214;2024-03-23T04:19:26;7.60;;;5.13;;
19800;SDS011;10060;48.274;12.214;2024-03-23T04:22:28;9.63;;;6.07;;
19800;SDS011;10060;48.274;12.214;2024-03-23T04:25:32;7.87;;;5.13;;
19800;SDS011;10060;48.274;12.214;2024-03-23T04:28:33;7.13;;;5.03;;
19800;SDS011;10060;48.274;12.214;2024-03-23T04:31:35;5.73;;;4.20;;
19800;SDS011;10060;48.274;12.214;2024-03-23T04:34:36;4.90;;;4.40;;
19800;SDS011;10060;48.274;12.214;2024-03-23T04:37:39;5.00;;;4.50;;
19800;SDS011;10060;48.274;12.214;2024-03-23T04:40:43;5.53;;;4.47;;
19800;SDS011;10060;48.274;12.214;2024-03-23T04:43:45;8.60;;;4.70;;
19800;SDS011;10060;48.274;12.214;2024-03-23T04:46:47;5.40;;;4.40;;
19800;SDS011;10060;48.274;12.214;2024-03-23T04:49:50;6.07;;;4.80;;
19800;SDS011;10060;48.274;12.214;2024-03-23T04:52:52;5.53;;;5.03;;
19800;SDS011;10060;48.274;12.214;2024-03-23T04:55:56;8.90;;;5.10;;
19800;SDS011;10060;48.274;12.214;2024-03-23T04:58:59;5.33;;;4.73;;
19800;SDS011;10060;48.274;12.214;2024-03-23T05:02:01;6.90;;;5.47;;
19800;SDS011;10060;48.274;12.214;2024-03-23T05:05:04;6.73;;;6.00;;
19800;SDS011;10060;48.274;12.214;2024-03-23T05:08:07;5.33;;;4.83;;
19800;SDS011;10060;48.274;12.214;2024-03-23T05:11:11;6.07;;;4.17;;
19800;SDS011;10060;48.274;12.214;2024-03-23T05:14:12;6.20;;;4.33;;
19800;SDS011;10060;48.274;12.214;2024-03-23T05:17:15;4.73;;;3.93;;
19800;SDS011;10060;48.274;12.214;2024-03-23T05:20:16;6.73;;;3.60;;
19800;SDS011;10060;48.274;12.214;2024-03-23T05:23:19;3.80;;;3.40;;
19800;SDS011;10060;48.274;12.214;2024-03-23T05:26:22;4.70;;;3.70;;
19800;SDS011;10060;48.274;12.214;2024-03-23T05:29:24;6.97;;;3.67;;
19800;SDS011;10060;48.274;12.214;2024-03-23T05:32:25;4.80;;;3.00;;
19800;SDS011;10060;48.274;12.214;2024-03-23T05:35:28;4.30;;;3.17;;
19800;SDS011;10060;48.274;12.214;2024-03-23T05:38:29;3.43;;;2.77;;
19800;SDS011;10060;48.274;12.214;2024-03-23T05:41:32;3.83;;;3.00;;
19800;SDS011;10060;48.274;12.214;2024-03-23T05:44:36;4.93;;;2.80;;
19800;SDS011;10060;48.274;12.214;2024-03-23T05:47:38;4.97;;;3.07;;
19800;SDS011;10060;48.274;12.214;2024-03-23T05:50:40;3.77;;;2.80;;
19800;SDS011;10060;48.274;12.214;2024-03-23T05:53:44;3.30;;;3.00;;
19800;SDS011;10060;48.274;12.214;2024-03-23T05:56:47;2.80;;;2.50;;
19800;SDS011;10060;48.274;12.214;2024-03-23T05:59:49;6.60;;;3.70;;
19800;SDS011;10060;48.274;12.214;2024-03-23T06:02:51;3.83;;;2.77;;
19800;SDS011;10060;48.274;12.214;2024-03-23T06:05:52;3.47;;;2.43;;
19800;SDS011;10060;48.274;12.214;2024-03-23T06:08:55;3.47;;;2.50;;
19800;SDS011;10060;48.274;12.214;2024-03-23T06:11:57;2.50;;;2.30;;
19800;SDS011;10060;48.274;12.214;2024-03-23T06:15:00;3.17;;;2.60;;
19800;SDS011;10060;48.274;12.214;2024-03-23T06:18:01;3.10;;;2.47;;
19800;SDS011;10060;48.274;12.214;2024-03-23T06:21:04;4.00;;;3.03;;
19800;SDS011;10060;48.274;12.214;2024-03-23T06:24:05;3.13;;;2.37;;
19800;SDS011;10060;48.274;12.214;2024-03-23T06:27:09;2.63;;;2.40;;
19800;SDS011;10060;48.274;12.214;2024-03-23T06:30:10;5.53;;;2.47;;
19800;SDS011;10060;48.274;12.214;2024-03-23T06:33:13;3.30;;;2.50;;
19800;SDS011;10060;48.274;12.214;2024-03-23T06:36:14;4.17;;;2.37;;
19800;SDS011;10060;48.274;12.214;2024-03-23T06:39:17;2.57;;;2.13;;
19800;SDS011;10060;48.274;12.214;2024-03-23T06:42:19;2.97;;;2.20;;
19800;SDS011;10060;48.274;12.214;2024-03-23T06:45:21;3.50;;;2.30;;
19800;SDS011;10060;48.274;12.214;2024-03-23T06:48:24;2.60;;;2.40;;
19800;SDS011;10060;48.274;12.214;2024-03-23T06:51:25;7.43;;;2.47;;
19800;SDS011;10060;48.274;12.214;2024-03-23T06:54:28;3.33;;;2.30;;
19800;SDS011;10060;48.274;12.214;2024-03-23T06:57:30;4.00;;;2.50;;
19800;SDS011;10060;48.274;12.214;2024-03-23T07:00:32;3.43;;;2.53;;
19800;SDS011;10060;48.274;12.214;2024-03-23T07:03:34;5.33;;;2.70;;
19800;SDS011;10060;48.274;12.214;2024-03-23T07:06:41;5.17;;;2.27;;
19800;SDS011;10060;48.274;12.214;2024-03-23T07:09:43;3.87;;;2.40;;
19800;SDS011;10060;48.274;12.214;2024-03-23T07:12:46;4.57;;;3.27;;
19800;SDS011;10060;48.274;12.214;2024-03-23T07:15:51;5.60;;;2.30;;
19800;SDS011;10060;48.274;12.214;2024-03-23T07:18:53;5.77;;;2.80;;
19800;SDS011;10060;48.274;12.214;2024-03-23T07:21:54;3.00;;;2.30;;
19800;SDS011;10060;48.274;12.214;2024-03-23T07:24:56;3.87;;;2.03;;
19800;SDS011;10060;48.274;12.214;2024-03-23T07:27:59;2.10;;;1.90;;
19800;SDS011;10060;48.274;12.214;2024-03-23T07:31:02;4.37;;;2.03;;
19800;SDS011;10060;48.274;12.214;2024-03-23T07:34:04;4.10;;;2.30;;
19800;SDS011;10060;48.274;12.214;2024-03-23T07:37:06;2.63;;;2.40;;
19800;SDS011;10060;48.274;12.214;2024-03-23T07:40:08;2.93;;;2.43;;
19800;SDS011;10060;48.274;12.214;2024-03-23T07:43:13;3.03;;;2.00;;
19800;SDS011;10060;48.274;12.214;2024-03-23T07:46:15;2.20;;;1.87;;
19800;SDS011;10060;48.274;12.214;2024-03-23T07:49:19;3.33;;;1.80;;
19800;SDS011;10060;48.274;12.214;2024-03-23T07:52:20;4.17;;;1.97;;
19800;SDS011;10060;48.274;12.214;2024-03-23T07:55:22;2.08;;;1.83;;
19800;SDS011;10060;48.274;12.214;2024-03-23T07:58:25;3.92;;;2.28;;
19800;SDS011;10060;48.274;12.214;2024-03-23T08:01:27;4.27;;;2.40;;
19800;SDS011;10060;48.274;12.214;2024-03-23T08:04:29;3.65;;;2.00;;
19800;SDS011;10060;48.274;12.214;2024-03-23T08:07:31;4.20;;;2.33;;
19800;SDS011;10060;48.274;12.214;2024-03-23T08:10:33;4.43;;;2.20;;
19800;SDS011;10060;48.274;12.214;2024-03-23T08:13:36;7.87;;;2.10;;
19800;SDS011;10060;48.274;12.214;2024-03-23T08:16:39;7.43;;;2.57;;
19800;SDS011;10060;48.274;12.214;2024-03-23T08:19:41;2.63;;;1.60;;
19800;SDS011;10060;48.274;12.214;2024-03-23T08:22:43;3.43;;;1.67;;
19800;SDS011;10060;48.274;12.214;2024-03-23T08:25:45;5.57;;;2.00;;
19800;SDS011;10060;48.274;12.214;2024-03-23T08:28:47;4.03;;;2.87;;
19800;SDS011;10060;48.274;12.214;2024-03-23T08:31:50;3.77;;;2.30;;
19800;SDS011;10060;48.274;12.214;2024-03-23T08:34:51;5.47;;;2.87;;
19800;SDS011;10060;48.274;12.214;2024-03-23T08:37:53;4.50;;;2.90;;
19800;SDS011;10060;48.274;12.214;2024-03-23T08:40:58;5.87;;;3.27;;
19800;SDS011;10060;48.274;12.214;2024-03-23T08:44:02;7.47;;;3.23;;
19800;SDS011;10060;48.274;12.214;2024-03-23T08:47:04;8.43;;;4.90;;
19800;SDS011;10060;48.274;12.214;2024-03-23T08:50:09;8.00;;;4.70;;
19800;SDS011;10060;48.274;12.214;2024-03-23T08:53:10;11.97;;;6.00;;
19800;SDS011;10060;48.274;12.214;2024-03-23T08:56:12;9.03;;;5.87;;
19800;SDS011;10060;48.274;12.214;2024-03-23T08:59:15;7.00;;;5.03;;
19800;SDS011;10060;48.274;12.214;2024-03-23T09:02:17;9.33;;;5.53;;
19800;SDS011;10060;48.274;12.214;2024-03-23T09:05:20;7.20;;;5.47;;
19800;SDS011;10060;48.274;12.214;2024-03-23T09:08:21;8.27;;;5.80;;
19800;SDS011;10060;48.274;12.214;2024-03-23T09:11:24;7.53;;;5.93;;
19800;SDS011;10060;48.274;12.214;2024-03-23T09:14:27;8.57;;;5.47;;
19800;SDS011;10060;48.274;12.214;2024-03-23T09:17:29;8.70;;;5.77;;
19800;SDS011;10060;48.274;12.214;2024-03-23T09:20:32;8.57;;;5.17;;
19800;SDS011;10060;48.274;12.214;2024-03-23T09:23:34;6.40;;;4.57;;
19800;SDS011;10060;48.274;12.214;2024-03-23T09:26:36;7.63;;;5.00;;
19800;SDS011;10060;48.274;12.214;2024-03-23T09:29:39;7.87;;;5.10;;
19800;SDS011;10060;48.274;12.214;2024-03-23T09:32:41;6.60;;;4.90;;
19800;SDS011;10060;48.274;12.214;2024-03-23T09:35:44;9.20;;;6.13;;
19800;SDS011;10060;48.274;12.214;2024-03-23T09:38:47;6.07;;;4.50;;
19800;SDS011;10060;48.274;12.214;2024-03-23T09:41:48;4.93;;;3.83;;
19800;SDS011;10060;48.274;12.214;2024-03-23T09:44:52;5.87;;;4.07;;
19800;SDS011;10060;48.274;12.214;2024-03-23T09:47:54;6.50;;;4.50;;
19800;SDS011;10060;48.274;12.214;2024-03-23T09:50:57;4.97;;;3.80;;
19800;SDS011;10060;48.274;12.214;2024-03-23T09:53:59;4.50;;;3.40;;
19800;SDS011;10060;48.274;12.214;2024-03-23T09:57:00;4.50;;;3.60;;
19800;SDS011;10060;48.274;12.214;2024-03-23T10:00:05;4.27;;;3.43;;
19800;SDS011;10060;48.274;12.214;2024-03-23T10:03:07;5.63;;;4.00;;
19800;SDS011;10060;48.274;12.214;2024-03-23T10:06:11;6.23;;;4.17;;
19800;SDS011;10060;48.274;12.214;2024-03-23T10:09:16;8.10;;;3.20;;
19800;SDS011;10060;48.274;12.214;2024-03-23T10:12:18;4.67;;;3.40;;
19800;SDS011;10060;48.274;12.214;2024-03-23T10:15:23;4.23;;;3.13;;
19800;SDS011;10060;48.274;12.214;2024-03-23T10:18:25;4.87;;;3.50;;
19800;SDS011;10060;48.274;12.214;2024-03-23T10:21:28;5.47;;;2.90;;
19800;SDS011;10060;48.274;12.214;2024-03-23T10:24:30;4.77;;;3.37;;
19800;SDS011;10060;48.274;12.214;2024-03-23T10:27:32;4.37;;;2.70;;
19800;SDS011;10060;48.274;12.214;2024-03-23T10:30:35;2.67;;;2.43;;
19800;SDS011;10060;48.274;12.214;2024-03-23T10:33:36;3.03;;;2.27;;
19800;SDS011;10060;48.274;12.214;2024-03-23T10:36:46;4.10;;;2.33;;
19800;SDS011;10060;48.274;12.214;2024-03-23T10:39:47;3.57;;;2.60;;
19800;SDS011;10060;48.274;12.214;2024-03-23T10:42:49;2.57;;;2.37;;
19800;SDS011;10060;48.274;12.214;2024-03-23T10:45:54;2.07;;;1.57;;
19800;SDS011;10060;48.274;12.214;2024-03-23T10:48:56;1.57;;;1.47;;
19800;SDS011;10060;48.274;12.214;2024-03-23T10:51:58;1.57;;;1.47;;
19800;SDS011;10060;48.274;12.214;2024-03-23T10:55:00;1.73;;;1.63;;
19800;SDS011;10060;48.274;12.214;2024-03-23T10:58:04;2.00;;;1.83;;
19800;SDS011;10060;48.274;12.214;2024-03-23T11:01:07;2.30;;;2.10;;
19800;SDS011;10060;48.274;12.214;2024-03-23T11:04:14;2.33;;;2.13;;
19800;SDS011;10060;48.274;12.214;2024-03-23T11:07:30;2.57;;;2.00;;
19800;SDS011;10060;48.274;12.214;2024-03-23T11:10:32;4.23;;;2.20;;
19800;SDS011;10060;48.274;12.214;2024-03-23T11:13:36;1.63;;;1.53;;
19800;SDS011;10060;48.274;12.214;2024-03-23T11:16:39;1.50;;;1.40;;
19800;SDS011;10060;48.274;12.214;2024-03-23T11:19:41;1.60;;;1.50;;
19800;SDS011;10060;48.274;12.214;2024-03-23T11:22:43;1.57;;;1.47;;
19800;SDS011;10060;48.274;12.214;2024-03-23T11:25:47;1.40;;;1.30;;
19800;SDS011;10060;48.274;12.214;2024-03-23T11:28:48;1.40;;;1.30;;
19800;SDS011;10060;48.274;12.214;2024-03-23T11:31:52;1.40;;;1.30;;
19800;SDS011;10060;48.274;12.214;2024-03-23T11:34:54;3.43;;;1.90;;
19800;SDS011;10060;48.274;12.214;2024-03-23T11:38:02;1.70;;;1.60;;
19800;SDS011;10060;48.274;12.214;2024-03-23T11:41:05;2.10;;;2.00;;
19800;SDS011;10060;48.274;12.214;2024-03-23T11:44:14;3.97;;;2.50;;
19800;SDS011;10060;48.274;12.214;2024-03-23T11:47:16;5.40;;;2.17;;
19800;SDS011;10060;48.274;12.214;2024-03-23T11:50:19;2.40;;;2.20;;
19800;SDS011;10060;48.274;12.214;2024-03-23T11:53:21;3.23;;;2.70;;
19800;SDS011;10060;48.274;12.214;2024-03-23T11:56:24;3.47;;;2.57;;
19800;SDS011;10060;48.274;12.214;2024-03-23T11:59:32;2.40;;;2.20;;
19800;SDS011;10060;48.274;12.214;2024-03-23T12:02:35;2.60;;;2.23;;
19800;SDS011;10060;48.274;12.214;2024-03-23T12:05:37;3.00;;;2.47;;
19800;SDS011;10060;48.274;12.214;2024-03-23T12:08:39;2.50;;;2.30;;
19800;SDS011;10060;48.274;12.214;2024-03-23T12:11:42;2.00;;;1.90;;
19800;SDS011;10060;48.274;12.214;2024-03-23T12:14:43;2.50;;;2.30;;
19800;SDS011;10060;48.274;12.214;2024-03-23T12:17:46;2.70;;;2.50;;
19800;SDS011;10060;48.274;12.214;2024-03-23T12:20:48;2.43;;;2.23;;
19800;SDS011;10060;48.274;12.214;2024-03-23T12:23:50;2.50;;;2.30;;
19800;SDS011;10060;48.274;12.214;2024-03-23T12:26:52;2.00;;;1.90;;
19800;SDS011;10060;48.274;12.214;2024-03-23T12:29:54;2.20;;;2.10;;
19800;SDS011;10060;48.274;12.214;2024-03-23T12:32:57;1.80;;;1.70;;
19800;SDS011;10060;48.274;12.214;2024-03-23T12:35:59;3.50;;;2.30;;
19800;SDS011;10060;48.274;12.214;2024-03-23T12:39:00;2.00;;;1.90;;
19800;SDS011;10060;48.274;12.214;2024-03-23T12:42:03;3.27;;;2.40;;
19800;SDS011;10060;48.274;12.214;2024-03-23T12:45:05;2.37;;;2.00;;
19800;SDS011;10060;48.274;12.214;2024-03-23T12:48:08;3.20;;;2.00;;
19800;SDS011;10060;48.274;12.214;2024-03-23T12:51:11;2.67;;;2.47;;
19800;SDS011;10060;48.274;12.214;2024-03-23T12:54:12;2.50;;;2.00;;
19800;SDS011;10060;48.274;12.214;2024-03-23T12:57:14;4.37;;;2.43;;
19800;SDS011;10060;48.274;12.214;2024-03-23T13:00:16;3.50;;;2.83;;
19800;SDS011;10060;48.274;12.214;2024-03-23T13:03:19;3.63;;;3.33;;
19800;SDS011;10060;48.274;12.214;2024-03-23T13:06:21;3.73;;;2.83;;
19800;SDS011;10060;48.274;12.214;2024-03-23T13:09:23;3.60;;;2.60;;
19800;SDS011;10060;48.274;12.214;2024-03-23T13:12:24;2.77;;;2.50;;
19800;SDS011;10060;48.274;12.214;2024-03-23T13:15:26;3.03;;;2.30;;
19800;SDS011;10060;48.274;12.214;2024-03-23T13:18:29;2.93;;;2.30;;
19800;SDS011;10060;48.274;12.214;2024-03-23T13:21:31;2.40;;;2.20;;
19800;SDS011;10060;48.274;12.214;2024-03-23T13:24:33;2.23;;;2.03;;
19800;SDS011;10060;48.274;12.214;2024-03-23T13:27:35;4.47;;;2.20;;
19800;SDS011;10060;48.274;12.214;2024-03-23T13:30:36;3.73;;;3.00;;
19800;SDS011;10060;48.274;12.214;2024-03-23T13:33:40;4.53;;;2.20;;
19800;SDS011;10060;48.274;12.214;2024-03-23T13:36:44;2.73;;;2.43;;
19800;SDS011;10060;48.274;12.214;2024-03-23T13:39:46;5.00;;;2.50;;
19800;SDS011;10060;48.274;12.214;2024-03-23T13:42:48;5.57;;;3.00;;
19800;SDS011;10060;48.274;12.214;2024-03-23T13:45:53;4.53;;;2.63;;
19800;SDS011;10060;48.274;12.214;2024-03-23T13:48:57;4.90;;;2.67;;
19800;SDS011;10060;48.274;12.214;2024-03-23T13:51:59;3.23;;;2.73;;
19800;SDS011;10060;48.274;12.214;2024-03-23T13:55:01;3.03;;;2.70;;
19800;SDS011;10060;48.274;12.214;2024-03-23T13:58:02;5.90;;;3.50;;
19800;SDS011;10060;48.274;12.214;2024-03-23T14:01:05;6.10;;;2.70;;
19800;SDS011;10060;48.274;12.214;2024-03-23T14:04:09;5.87;;;2.50;;
19800;SDS011;10060;48.274;12.214;2024-03-23T14:07:11;4.80;;;2.90;;
19800;SDS011;10060;48.274;12.214;2024-03-23T14:10:13;4.60;;;2.80;;
19800;SDS011;10060;48.274;12.214;2024-03-23T14:13:15;4.67;;;2.63;;
19800;SDS011;10060;48.274;12.214;2024-03-23T14:16:16;4.13;;;2.90;;
19800;SDS011;10060;48.274;12.214;2024-03-23T14:19:20;5.90;;;3.10;;
19800;SDS011;10060;48.274;12.214;2024-03-23T14:22:23;5.33;;;2.70;;
19800;SDS011;10060;48.274;12.214;2024-03-23T14:25:25;4.80;;;3.43;;
19800;SDS011;10060;48.274;12.214;2024-03-23T14:28:29;8.53;;;3.00;;
19800;SDS011;10060;48.274;12.214;2024-03-23T14:31:31;4.63;;;2.87;;
19800;SDS011;10060;48.274;12.214;2024-03-23T14:34:34;7.90;;;3.40;;
19800;SDS011;10060;48.274;12.214;2024-03-23T14:37:36;4.23;;;3.40;;
19800;SDS011;10060;48.274;12.214;2024-03-23T14:40:38;5.47;;;4.00;;
19800;SDS011;10060;48.274;12.214;2024-03-23T14:43:40;8.33;;;3.60;;
19800;SDS011;10060;48.274;12.214;2024-03-23T14:46:43;5.90;;;4.00;;
19800;SDS011;10060;48.274;12.214;2024-03-23T14:49:47;6.80;;;4.10;;
19800;SDS011;10060;48.274;12.214;2024-03-23T14:52:50;6.53;;;4.93;;
19800;SDS011;10060;48.274;12.214;2024-03-23T14:55:54;8.10;;;4.67;;
19800;SDS011;10060;48.274;12.214;2024-03-23T14:58:55;6.77;;;4.70;;
19800;SDS011;10060;48.274;12.214;2024-03-23T15:01:57;5.90;;;4.30;;
19800;SDS011;10060;48.274;12.214;2024-03-23T15:05:01;7.20;;;4.07;;
19800;SDS011;10060;48.274;12.214;2024-03-23T15:08:04;5.10;;;3.47;;
19800;SDS011;10060;48.274;12.214;2024-03-23T15:11:06;7.47;;;3.90;;
19800;SDS011;10060;48.274;12.214;2024-03-23T15:14:08;7.40;;;3.50;;
19800;SDS011;10060;48.274;12.214;2024-03-23T15:17:10;5.83;;;3.53;;
19800;SDS011;10060;48.274;12.214;2024-03-23T15:20:14;4.57;;;3.77;;
19800;SDS011;10060;48.274;12.214;2024-03-23T15:23:16;5.57;;;3.60;;
19800;SDS011;10060;48.274;12.214;2024-03-23T15:26:18;8.27;;;4.10;;
19800;SDS011;10060;48.274;12.214;2024-03-23T15:29:21;5.13;;;4.03;;
19800;SDS011;10060;48.274;12.214;2024-03-23T15:32:23;7.33;;;4.70;;
19800;SDS011;10060;48.274;12.214;2024-03-23T15:35:26;8.53;;;4.57;;
19800;SDS011;10060;48.274;12.214;2024-03-23T15:38:28;7.67;;;4.30;;
19800;SDS011;10060;48.274;12.214;2024-03-23T15:41:30;7.63;;;4.40;;
19800;SDS011;10060;48.274;12.214;2024-03-23T15:44:34;5.70;;;4.27;;
19800;SDS011;10060;48.274;12.214;2024-03-23T15:47:36;4.70;;;4.00;;
19800;SDS011;10060;48.274;12.214;2024-03-23T15:50:39;6.27;;;4.07;;
19800;SDS011;10060;48.274;12.214;2024-03-23T15:53:42;6.30;;;3.97;;
19800;SDS011;10060;48.274;12.214;2024-03-23T15:56:44;7.83;;;3.40;;
19800;SDS011;10060;48.274;12.214;2024-03-23T15:59:47;6.63;;;3.80;;
19800;SDS011;10060;48.274;12.214;2024-03-23T16:02:48;6.47;;;4.10;;
19800;SDS011;10060;48.274;12.214;2024-03-23T16:05:52;7.17;;;3.70;;
19800;SDS011;10060;48.274;12.214;2024-03-23T16:08:54;4.40;;;3.10;;
19800;SDS011;10060;48.274;12.214;2024-03-23T16:11:56;4.93;;;2.87;;
19800;SDS011;10060;48.274;12.214;2024-03-23T16:14:58;5.20;;;2.80;;
19800;SDS011;10060;48.274;12.214;2024-03-23T16:18:00;6.17;;;3.37;;
19800;SDS011;10060;48.274;12.214;2024-03-23T16:21:04;7.87;;;3.10;;
19800;SDS011;10060;48.274;12.214;2024-03-23T16:24:06;6.70;;;3.27;;
19800;SDS011;10060;48.274;12.214;2024-03-23T16:27:09;6.20;;;3.30;;
19800;SDS011;10060;48.274;12.214;2024-03-23T16:30:11;5.77;;;3.27;;
19800;SDS011;10060;48.274;12.214;2024-03-23T16:33:13;4.87;;;3.20;;
19800;SDS011;10060;48.274;12.214;2024-03-23T16:36:17;5.13;;;2.70;;
19800;SDS011;10060;48.274;12.214;2024-03-23T16:39:18;8.50;;;3.37;;
19800;SDS011;10060;48.274;12.214;2024-03-23T16:42:23;8.37;;;2.60;;
19800;SDS011;10060;48.274;12.214;2024-03-23T16:45:26;4.63;;;3.10;;
19800;SDS011;10060;48.274;12.214;2024-03-23T16:48:27;3.60;;;2.83;;
19800;SDS011;10060;48.274;12.214;2024-03-23T16:51:31;5.20;;;2.80;;
19800;SDS011;10060;48.274;12.214;2024-03-23T16:54:32;6.33;;;3.57;;
19800;SDS011;10060;48.274;12.214;2024-03-23T16:57:34;7.03;;;2.53;;
19800;SDS011;10060;48.274;12.214;2024-03-23T17:00:36;6.77;;;2.70;;
19800;SDS011;10060;48.274;12.214;2024-03-23T17:03:38;4.03;;;3.43;;
19800;SDS011;10060;48.274;12.214;2024-03-23T17:06:41;6.80;;;3.20;;
19800;SDS011;10060;48.274;12.214;2024-03-23T17:09:46;4.23;;;2.93;;
19800;SDS011;10060;48.274;12.214;2024-03-23T17:12:48;3.90;;;2.87;;
19800;SDS011;10060;48.274;12.214;2024-03-23T17:15:50;4.67;;;2.80;;
19800;SDS011;10060;48.274;12.214;2024-03-23T17:18:51;8.10;;;2.90;;
19800;SDS011;10060;48.274;12.214;2024-03-23T17:21:55;5.37;;;2.83;;
19800;SDS011;10060;48.274;12.214;2024-03-23T17:24:57;7.37;;;3.30;;
19800;SDS011;10060;48.274;12.214;2024-03-23T17:27:58;5.57;;;3.30;;
19800;SDS011;10060;48.274;12.214;2024-03-23T17:31:00;4.93;;;2.93;;
19800;SDS011;10060;48.274;12.214;2024-03-23T17:34:02;3.60;;;2.97;;
19800;SDS011;10060;48.274;12.214;2024-03-23T17:37:05;4.00;;;3.13;;
19800;SDS011;10060;48.274;12.214;2024-03-23T17:40:07;6.13;;;2.97;;
19800;SDS011;10060;48.274;12.214;2024-03-23T17:43:09;5.37;;;2.50;;
19800;SDS011;10060;48.274;12.214;2024-03-23T17:46:11;7.67;;;2.87;;
19800;SDS011;10060;48.274;12.214;2024-03-23T17:49:13;6.40;;;3.83;;
19800;SDS011;10060;48.274;12.214;2024-03-23T17:52:17;7.67;;;3.17;;
19800;SDS011;10060;48.274;12.214;2024-03-23T17:55:18;7.97;;;3.20;;
19800;SDS011;10060;48.274;12.214;2024-03-23T17:58:21;4.17;;;2.97;;
19800;SDS011;10060;48.274;12.214;2024-03-23T18:01:22;5.97;;;3.53;;
19800;SDS011;10060;48.274;12.214;2024-03-23T18:04:25;4.93;;;3.27;;
19800;SDS011;10060;48.274;12.214;2024-03-23T18:07:28;5.77;;;3.10;;
19800;SDS011;10060;48.274;12.214;2024-03-23T18:10:30;3.20;;;2.73;;
19800;SDS011;10060;48.274;12.214;2024-03-23T18:13:32;3.00;;;2.70;;
19800;SDS011;10060;48.274;12.214;2024-03-23T18:16:33;3.80;;;2.93;;
19800;SDS011;10060;48.274;12.214;2024-03-23T18:19:36;4.57;;;2.80;;
19800;SDS011;10060;48.274;12.214;2024-03-23T18:22:39;4.80;;;3.27;;
19800;SDS011;10060;48.274;12.214;2024-03-23T18:25:41;5.60;;;3.60;;
19800;SDS011;10060;48.274;12.214;2024-03-23T18:28:47;6.63;;;3.30;;
19800;SDS011;10060;48.274;12.214;2024-03-23T18:31:50;5.80;;;3.20;;
19800;SDS011;10060;48.274;12.214;2024-03-23T18:34:52;6.33;;;3.20;;
19800;SDS011;10060;48.274;12.214;2024-03-23T18:37:56;4.97;;;3.00;;
19800;SDS011;10060;48.274;12.214;2024-03-23T18:40:57;3.83;;;3.10;;
19800;SDS011;10060;48.274;12.214;2024-03-23T18:44:00;4.27;;;3.17;;
19800;SDS011;10060;48.274;12.214;2024-03-23T18:47:02;3.97;;;2.80;;
19800;SDS011;10060;48.274;12.214;2024-03-23T18:50:04;3.30;;;2.90;;
19800;SDS011;10060;48.274;12.214;2024-03-23T18:53:07;5.53;;;3.00;;